Time;durP1;ratioP1;P1;durP2;ratioP2;P2;SDS_P1;SDS_P2;PMS_P1;PMS_P2;Temp;Humidity;BMP_temperature;BMP_pressure;BME280_temperature;BME280_humidity;BME280_pressure;Samples;Min_cycle;Max_cycle;Signal;HPM_P1;HPM_P2
2024/04/04 00:01:15;;;;;;;1999.90;999.90;;;10.20;99.90;;;;;;5025109;28;20712;-84
2024/04/04 00:03:40;;;;;;;1999.90;999.90;;;10.20;99.90;;;;;;5023632;28;20034;-83
2024/04/04 00:06:06;;;;;;;1999.90;999.90;;;10.10;99.90;;;;;;5020651;28;20184;-86
2024/04/04 00:08:31;;;;;;;1999.90;999.90;;;10.10;99.90;;;;;;5030588;28;20029;-81
2024/04/04 00:11:10;;;;;;;1999.90;999.90;;;10.10;99.90;;;;;;5022308;28;20393;-86
2024/04/04 00:13:36;;;;;;;1999.90;999.90;;;10.10;99.90;;;;;;5019242;28;20389;-85
2024/04/04 00:16:02;;;;;;;1999.90;999.90;;;10.10;99.90;;;;;;5021883;28;20047;-87
2024/04/04 00:18:28;;;;;;;1999.90;999.90;;;10.00;99.90;;;;;;5019535;28;20501;-86
2024/04/04 00:20:54;;;;;;;1999.90;999.90;;;10.00;99.90;;;;;;5021743;28;20037;-84
2024/04/04 00:23:20;;;;;;;1999.90;999.90;;;10.10;99.90;;;;;;5021732;28;20084;-84
2024/04/04 00:25:45;;;;;;;1999.90;999.90;;;9.90;99.90;;;;;;5022001;28;20032;-85
2024/04/04 00:28:11;;;;;;;1999.90;999.90;;;10.10;99.90;;;;;;5024125;28;20550;-89
2024/04/04 00:30:37;;;;;;;1999.90;999.90;;;10.30;99.90;;;;;;5023982;28;20036;-83
2024/04/04 00:33:03;;;;;;;1999.90;999.90;;;10.50;99.90;;;;;;5023002;28;20033;-84
2024/04/04 00:35:28;;;;;;;1999.90;999.90;;;10.50;99.90;;;;;;5022594;28;20373;-83
2024/04/04 00:37:54;;;;;;;1999.90;999.90;;;10.40;99.90;;;;;;5022611;28;20571;-83
2024/04/04 00:40:20;;;;;;;1999.90;999.90;;;10.40;99.90;;;;;;5022871;28;20045;-83
2024/04/04 00:42:50;;;;;;;1999.90;999.90;;;10.50;99.90;;;;;;5023508;28;20025;-84
2024/04/04 00:45:15;;;;;;;1999.90;999.90;;;10.40;99.90;;;;;;5023749;28;20522;-83
2024/04/04 00:47:46;;;;;;;1999.90;999.90;;;10.50;99.90;;;;;;5025161;28;20037;-88
2024/04/04 00:50:14;;;;;;;1999.90;999.90;;;10.40;99.90;;;;;;5019153;28;20379;-86
2024/04/04 00:52:41;;;;;;;1999.90;999.90;;;10.50;99.90;;;;;;5056544;28;20065;-84
2024/04/04 00:55:06;;;;;;;;;;;10.50;99.90;;;;;;5024786;28;20029;-86
2024/04/04 00:57:33;;;;;;;1999.90;999.90;;;10.50;99.90;;;;;;5024805;28;19966;-83
2024/04/04 00:59:59;;;;;;;1999.90;999.90;;;10.40;99.90;;;;;;5021990;28;20786;-86
2024/04/04 01:02:24;;;;;;;1999.90;999.90;;;10.50;99.90;;;;;;5023329;28;20029;-85
2024/04/04 01:04:50;;;;;;;1999.90;999.90;;;10.40;99.90;;;;;;5022558;28;20280;-84
2024/04/04 01:07:16;;;;;;;1999.90;999.90;;;10.40;99.90;;;;;;5021552;28;20464;-84
2024/04/04 01:09:43;;;;;;;1999.90;999.90;;;10.40;99.90;;;;;;5019488;28;20083;-84
2024/04/04 01:12:09;;;;;;;1999.90;999.90;;;10.40;99.90;;;;;;5022091;28;20026;-83
2024/04/04 01:14:34;;;;;;;1999.90;999.90;;;10.40;99.90;;;;;;5017199;28;20247;-83
2024/04/04 01:17:00;;;;;;;1999.90;999.90;;;10.40;99.90;;;;;;5019589;28;20123;-82
2024/04/04 01:19:26;;;;;;;1999.90;999.90;;;10.40;99.90;;;;;;5021052;28;20507;-84
2024/04/04 01:21:52;;;;;;;1999.90;999.90;;;10.40;99.90;;;;;;5021941;28;20029;-83
2024/04/04 01:24:17;;;;;;;1999.90;999.90;;;10.30;99.90;;;;;;5021409;28;20033;-84
2024/04/04 01:26:43;;;;;;;1999.90;999.90;;;10.30;99.90;;;;;;5021304;28;20033;-84
2024/04/04 01:29:09;;;;;;;1999.90;999.90;;;10.30;99.90;;;;;;5021489;28;20044;-82
2024/04/04 01:31:35;;;;;;;1999.90;999.90;;;10.30;99.90;;;;;;5020937;28;20126;-87
2024/04/04 01:34:01;;;;;;;1999.90;999.90;;;10.40;99.90;;;;;;5021082;28;20037;-81
2024/04/04 01:36:26;;;;;;;1999.90;999.90;;;10.40;99.90;;;;;;5020943;28;20040;-89
2024/04/04 01:38:52;;;;;;;1999.90;999.90;;;10.40;99.90;;;;;;5021720;28;20029;-81
2024/04/04 01:41:18;;;;;;;1999.90;999.90;;;10.20;99.90;;;;;;5021464;28;20096;-86
2024/04/04 01:43:44;;;;;;;1999.90;999.90;;;10.20;99.90;;;;;;5022441;28;20758;-82
2024/04/04 01:46:10;;;;;;;1999.90;999.90;;;10.10;99.90;;;;;;5021972;28;20029;-86
2024/04/04 01:48:36;;;;;;;1999.90;999.90;;;10.20;99.90;;;;;;5021760;28;20497;-85
2024/04/04 01:51:02;;;;;;;1999.90;999.90;;;10.20;99.90;;;;;;5022009;28;20065;-84
2024/04/04 01:53:28;;;;;;;1999.90;999.90;;;10.30;99.90;;;;;;5019976;28;20037;-81
2024/04/04 01:56:00;;;;;;;1999.90;999.90;;;10.40;99.90;;;;;;5022192;28;20061;-81
2024/04/04 01:58:26;;;;;;;1999.90;999.90;;;10.60;99.90;;;;;;5021862;28;20040;-84
2024/04/04 02:00:52;;;;;;;1999.90;999.90;;;10.50;99.90;;;;;;5023090;28;20276;-83
2024/04/04 02:03:18;;;;;;;1999.90;999.90;;;10.50;99.90;;;;;;5021189;28;20028;-81
2024/04/04 02:05:44;;;;;;;1999.90;999.90;;;10.50;99.90;;;;;;5022439;28;20029;-83
2024/04/04 02:08:09;;;;;;;1999.90;999.90;;;10.50;99.90;;;;;;5020281;28;20034;-83
2024/04/04 02:10:36;;;;;;;1999.90;999.90;;;10.50;99.90;;;;;;5026244;28;20047;-87
2024/04/04 02:13:03;;;;;;;1999.90;999.90;;;10.40;99.90;;;;;;5025939;28;20040;-86
2024/04/04 02:15:29;;;;;;;1999.90;999.90;;;10.40;99.90;;;;;;5025346;28;20080;-85
2024/04/04 02:17:55;;;;;;;1999.90;999.90;;;10.30;99.90;;;;;;5028787;28;20507;-86
2024/04/04 02:20:22;;;;;;;1999.90;999.90;;;10.30;99.90;;;;;;5024188;28;20042;-88
2024/04/04 02:22:50;;;;;;;;;;;10.40;99.90;;;;;;5029386;28;20025;-84
2024/04/04 02:25:16;;;;;;;1999.90;999.90;;;10.50;99.90;;;;;;5026023;28;19913;-85
2024/04/04 02:27:42;;;;;;;1999.90;999.90;;;10.40;99.90;;;;;;5026627;28;20747;-86
2024/04/04 02:30:08;;;;;;;1999.90;999.90;;;10.50;99.90;;;;;;5028387;28;20037;-85
2024/04/04 02:32:33;;;;;;;1999.90;999.90;;;10.30;99.90;;;;;;5027527;28;20156;-88
2024/04/04 02:34:59;;;;;;;1999.90;999.90;;;10.40;99.90;;;;;;5025184;28;20064;-82
2024/04/04 02:37:25;;;;;;;1999.90;999.90;;;10.30;99.90;;;;;;5025754;28;20056;-85
2024/04/04 02:39:51;;;;;;;1999.90;999.90;;;10.30;99.90;;;;;;5024916;28;20061;-83
2024/04/04 02:42:16;;;;;;;1999.90;999.90;;;10.40;99.90;;;;;;5023621;28;20064;-84
2024/04/04 02:44:42;;;;;;;1999.90;999.90;;;10.40;99.70;;;;;;5024795;28;20106;-83
2024/04/04 02:47:08;;;;;;;1999.90;999.90;;;10.40;99.60;;;;;;5024702;28;20044;-82
2024/04/04 02:49:33;;;;;;;1999.90;999.90;;;10.50;99.50;;;;;;5024594;28;20022;-81
2024/04/04 02:51:59;;;;;;;1999.90;999.90;;;10.50;99.30;;;;;;5024319;28;20844;-82
2024/04/04 02:54:25;;;;;;;1999.90;999.90;;;10.40;99.30;;;;;;5024030;28;20072;-83
2024/04/04 02:56:51;;;;;;;1999.90;999.90;;;10.50;99.30;;;;;;5024368;28;20053;-80
2024/04/04 02:59:16;;;;;;;1999.90;999.90;;;10.40;99.30;;;;;;5023819;28;20068;-82
2024/04/04 03:01:42;;;;;;;1999.90;999.90;;;10.40;99.10;;;;;;5023517;28;20033;-82
2024/04/04 03:04:08;;;;;;;1999.90;999.90;;;10.50;98.90;;;;;;5024542;28;20782;-79
2024/04/04 03:06:35;;;;;;;1999.90;999.90;;;10.50;98.80;;;;;;5024614;28;20441;-81
2024/04/04 03:09:01;;;;;;;;;;;10.50;98.60;;;;;;5025089;28;20025;-82
2024/04/04 03:11:26;;;;;;;1999.90;999.90;;;10.50;98.60;;;;;;5025719;28;19908;-89
2024/04/04 03:13:52;;;;;;;1999.90;999.90;;;10.50;98.50;;;;;;5025285;28;20045;-84
2024/04/04 03:16:18;;;;;;;1999.90;999.90;;;10.40;98.70;;;;;;5024950;28;20026;-87
2024/04/04 03:18:43;;;;;;;1999.90;999.90;;;10.50;98.50;;;;;;5029564;28;20036;-85
2024/04/04 03:21:09;;;;;;;1999.90;999.90;;;10.50;98.30;;;;;;5024832;28;20069;-85
2024/04/04 03:23:35;;;;;;;1999.90;999.90;;;10.50;98.30;;;;;;5024052;28;20104;-86
2024/04/04 03:26:01;;;;;;;1999.90;999.90;;;10.50;98.10;;;;;;5025038;28;20026;-85
2024/04/04 03:28:26;;;;;;;1999.90;999.90;;;10.50;98.20;;;;;;5025164;28;20800;-86
2024/04/04 03:30:52;;;;;;;1999.90;999.90;;;10.40;98.30;;;;;;5030635;28;20561;-86
2024/04/04 03:33:18;;;;;;;1999.90;999.90;;;10.30;98.50;;;;;;5027774;28;20114;-87
2024/04/04 03:35:44;;;;;;;1999.90;999.90;;;10.50;98.10;;;;;;5026362;28;20068;-88
2024/04/04 03:38:10;;;;;;;1999.90;999.90;;;10.50;97.90;;;;;;5026855;28;20025;-86
2024/04/04 03:40:36;;;;;;;1999.90;999.90;;;10.40;97.80;;;;;;5029781;28;20366;-86
2024/04/04 03:43:02;;;;;;;1999.90;999.90;;;10.40;97.90;;;;;;5027155;28;20034;-88
2024/04/04 03:45:37;;;;;;;1999.90;999.90;;;10.40;98.00;;;;;;5026657;28;20088;-87
2024/04/04 03:48:03;;;;;;;1999.90;999.90;;;10.40;98.00;;;;;;5025701;28;20261;-85
2024/04/04 03:50:29;;;;;;;1999.90;999.90;;;10.40;97.90;;;;;;5027078;28;20485;-84
2024/04/04 03:52:54;;;;;;;1999.90;999.90;;;10.40;97.80;;;;;;5026260;28;20033;-86
2024/04/04 03:55:20;;;;;;;1999.90;999.90;;;10.40;97.70;;;;;;5026069;28;20057;-87
2024/04/04 03:57:46;;;;;;;1999.90;999.90;;;10.50;97.40;;;;;;5026734;28;20041;-83
2024/04/04 04:00:12;;;;;;;1999.90;999.90;;;10.50;97.20;;;;;;5023554;28;20045;-86
2024/04/04 04:02:38;;;;;;;1999.90;999.90;;;10.40;97.40;;;;;;5023588;28;20040;-85
2024/04/04 04:05:04;;;;;;;1999.90;999.90;;;10.40;97.40;;;;;;5054981;28;20025;-82
2024/04/04 04:07:29;;;;;;;1999.90;999.90;;;10.40;97.20;;;;;;5024483;28;20022;-87
2024/04/04 04:09:55;;;;;;;1999.90;999.90;;;10.40;97.10;;;;;;5022870;28;20029;-84
2024/04/04 04:12:21;;;;;;;1999.90;999.90;;;10.30;97.30;;;;;;5023285;28;20049;-84
2024/04/04 04:14:47;;;;;;;1999.90;999.90;;;10.20;97.70;;;;;;5022401;28;20397;-80
2024/04/04 04:17:12;;;;;;;1999.90;999.90;;;10.10;97.90;;;;;;5026035;28;20032;-84
2024/04/04 04:19:38;;;;;;;1999.90;999.90;;;10.00;98.40;;;;;;5026305;28;20038;-85
2024/04/04 04:22:04;;;;;;;1999.90;999.90;;;9.90;98.60;;;;;;5025421;28;20025;-85
2024/04/04 04:24:30;;;;;;;1999.90;999.90;;;9.80;99.00;;;;;;5023946;28;20181;-89
2024/04/04 04:26:56;;;;;;;1999.90;999.90;;;9.80;99.20;;;;;;5023087;28;20092;-92
2024/04/04 04:29:21;;;;;;;1999.90;999.90;;;9.70;99.70;;;;;;5022978;28;20144;-92
2024/04/04 04:31:47;;;;;;;1999.90;999.90;;;9.90;98.90;;;;;;5028866;28;20025;-85
2024/04/04 04:34:13;;;;;;;1999.90;999.90;;;10.00;98.30;;;;;;5020698;28;20025;-87
2024/04/04 04:36:58;;;;;;;1999.90;999.90;;;10.10;97.50;;;;;;5022191;28;20025;-84
2024/04/04 04:39:24;;;;;;;1999.90;999.90;;;10.20;97.20;;;;;;5027401;28;20041;-83
2024/04/04 04:41:50;;;;;;;1999.90;999.90;;;10.30;96.80;;;;;;5022408;28;20037;-85
2024/04/04 04:44:16;;;;;;;1999.90;999.90;;;10.30;96.40;;;;;;5023671;28;20377;-87
2024/04/04 04:46:42;;;;;;;1999.90;999.90;;;10.20;96.60;;;;;;5022712;28;20771;-90
2024/04/04 04:49:08;;;;;;;1999.90;999.90;;;10.40;95.90;;;;;;5023797;28;20428;-88
2024/04/04 04:51:34;;;;;;;1999.90;999.90;;;10.30;95.90;;;;;;5022071;28;20029;-87
2024/04/04 04:54:00;;;;;;;1999.90;999.90;;;10.50;95.30;;;;;;5022911;28;20073;-88
2024/04/04 04:56:25;;;;;;;1999.90;999.90;;;10.40;95.40;;;;;;5025200;28;20500;-87
2024/04/04 04:58:51;;;;;;;1999.90;999.90;;;10.40;95.30;;;;;;5020009;28;20037;-81
2024/04/04 05:01:16;;;;;;;1999.90;999.90;;;10.40;95.20;;;;;;5022228;28;20053;-84
2024/04/04 05:03:42;;;;;;;1999.90;999.90;;;10.30;95.20;;;;;;5023378;28;20037;-83
2024/04/04 05:06:08;;;;;;;1999.90;999.90;;;10.20;95.50;;;;;;5022715;28;20029;-85
2024/04/04 05:08:34;;;;;;;1999.90;999.90;;;10.20;95.70;;;;;;5027028;28;20123;-83
2024/04/04 05:10:59;;;;;;;1999.90;999.90;;;10.20;95.50;;;;;;5023095;28;20033;-83
2024/04/04 05:13:28;;;;;;;1999.90;999.90;;;10.30;95.30;;;;;;5024029;28;20132;-83
2024/04/04 05:15:55;;;;;;;1999.90;999.90;;;10.10;96.30;;;;;;5022883;28;20032;-82
2024/04/04 05:18:24;;;;;;;1999.90;999.90;;;10.00;96.40;;;;;;5020591;28;20068;-82
2024/04/04 05:20:58;;;;;;;1999.90;999.90;;;9.80;97.30;;;;;;5021710;28;20080;-84
2024/04/04 05:23:23;;;;;;;1999.90;999.90;;;9.70;97.70;;;;;;5021476;28;20021;-81
2024/04/04 05:25:49;;;;;;;1999.90;999.90;;;9.70;98.00;;;;;;5021305;28;20037;-76
2024/04/04 05:28:15;;;;;;;1999.90;999.90;;;9.60;98.30;;;;;;5021659;28;20497;-79
2024/04/04 05:30:40;;;;;;;1999.90;999.90;;;9.60;98.70;;;;;;5021584;28;20523;-81
2024/04/04 05:33:06;;;;;;;1999.90;999.90;;;9.60;98.80;;;;;;5026274;28;20025;-78
2024/04/04 05:35:32;;;;;;;1999.90;999.90;;;9.60;99.00;;;;;;5020737;28;20142;-78
2024/04/04 05:37:57;;;;;;;1999.90;999.90;;;9.70;98.90;;;;;;5021366;28;20029;-80
2024/04/04 05:40:23;;;;;;;1999.90;999.90;;;9.80;98.80;;;;;;5021237;28;20041;-78
2024/04/04 05:42:49;;;;;;;1999.90;999.90;;;9.90;98.10;;;;;;5022030;28;20051;-78
2024/04/04 05:45:15;;;;;;;1999.90;999.90;;;10.10;97.20;;;;;;5011979;28;20088;-79
2024/04/04 05:47:41;;;;;;;1999.90;999.90;;;10.20;97.00;;;;;;5020857;28;20041;-79
2024/04/04 05:50:06;;;;;;;1999.90;999.90;;;10.10;97.30;;;;;;5019790;28;20629;-80
2024/04/04 05:52:32;;;;;;;1999.90;999.90;;;10.10;97.50;;;;;;5020585;28;20503;-81
2024/04/04 05:55:00;;;;;;;1999.90;999.90;;;10.40;95.50;;;;;;5018250;28;20037;-81
2024/04/04 05:57:25;;;;;;;1999.90;999.90;;;10.60;94.60;;;;;;5019215;28;20077;-81
2024/04/04 05:59:53;;;;;;;1999.90;999.90;;;10.70;93.90;;;;;;5021479;28;20037;-81
2024/04/04 06:02:20;;;;;;;1999.90;999.90;;;10.80;93.50;;;;;;5024923;28;20036;-81
2024/04/04 06:04:45;;;;;;;1999.90;999.90;;;10.80;93.30;;;;;;5025505;28;20155;-84
2024/04/04 06:07:12;;;;;;;1999.90;999.90;;;10.70;93.60;;;;;;5026046;28;20100;-80
2024/04/04 06:09:38;;;;;;;1999.90;999.90;;;10.50;94.40;;;;;;5024290;28;20448;-82
2024/04/04 06:12:03;;;;;;;1999.90;999.90;;;10.70;94.00;;;;;;5025179;28;20029;-81
2024/04/04 06:14:29;;;;;;;1999.90;999.90;;;10.50;94.90;;;;;;5025261;28;20305;-81
2024/04/04 06:16:55;;;;;;;1999.90;999.90;;;10.50;94.30;;;;;;5025182;28;20021;-81
2024/04/04 06:19:20;;;;;;;1999.90;999.90;;;10.90;93.20;;;;;;5029717;28;20069;-81
2024/04/04 06:21:47;;;;;;;1999.90;999.90;;;11.20;92.20;;;;;;5024823;28;20109;-84
2024/04/04 06:24:13;;;;;;;1999.90;999.90;;;11.40;91.40;;;;;;5025971;28;20022;-82
2024/04/04 06:26:40;;;;;;;1999.90;999.90;;;11.60;90.30;;;;;;5025330;28;20051;-81
2024/04/04 06:29:06;;;;;;;1999.90;999.90;;;11.70;90.00;;;;;;5025600;28;20100;-81
2024/04/04 06:31:31;;;;;;;1999.90;999.90;;;11.80;89.10;;;;;;5025229;28;20105;-82
2024/04/04 06:33:57;;;;;;;1999.90;999.90;;;12.00;87.90;;;;;;5025945;28;20112;-82
2024/04/04 06:36:23;;;;;;;1999.90;999.90;;;12.10;87.30;;;;;;5025361;28;20036;-82
2024/04/04 06:38:54;;;;;;;1999.90;999.90;;;12.30;85.40;;;;;;5023955;28;20034;-82
2024/04/04 06:41:20;;;;;;;1999.90;999.90;;;12.50;84.90;;;;;;5035217;28;20033;-82
2024/04/04 06:43:45;;;;;;;1999.90;999.90;;;12.40;84.60;;;;;;5025093;28;20021;-81
2024/04/04 06:46:11;;;;;;;1999.90;999.90;;;12.20;85.60;;;;;;5023771;28;20026;-81
2024/04/04 06:48:40;;;;;;;1999.90;999.90;;;12.10;86.00;;;;;;5025039;28;20025;-82
2024/04/04 06:51:07;;;;;;;1999.90;999.90;;;12.10;85.80;;;;;;5025407;28;20026;-81
2024/04/04 06:53:33;;;;;;;1999.90;999.90;;;12.10;85.70;;;;;;5023573;28;20029;-81
2024/04/04 06:55:59;;;;;;;1999.90;999.90;;;12.20;85.30;;;;;;5024393;28;20828;-82
2024/04/04 06:58:24;;;;;;;1999.90;999.90;;;12.20;85.00;;;;;;5023092;28;20080;-82
2024/04/04 07:00:58;;;;;;;1999.90;999.90;;;12.40;84.60;;;;;;5024394;28;20108;-82
2024/04/04 07:03:24;;;;;;;1999.90;999.90;;;12.60;84.10;;;;;;5023008;28;20026;-81
2024/04/04 07:05:50;;;;;;;1999.90;999.90;;;12.70;83.50;;;;;;5025134;28;20037;-81
2024/04/04 07:08:16;;;;;;;1999.90;999.90;;;12.80;82.30;;;;;;5023192;28;20268;-81
2024/04/04 07:10:42;;;;;;;1999.90;999.90;;;12.70;82.20;;;;;;5023514;28;20062;-81
2024/04/04 07:13:08;;;;;;;1999.90;999.90;;;12.70;82.30;;;;;;5024145;28;20648;-82
2024/04/04 07:15:33;;;;;;;1999.90;999.90;;;12.70;82.50;;;;;;5023976;28;20029;-82
2024/04/04 07:17:59;;;;;;;1999.90;999.90;;;12.80;82.20;;;;;;5029239;28;20029;-82
2024/04/04 07:20:25;;;;;;;1999.90;999.90;;;13.00;82.10;;;;;;5024718;28;20033;-82
2024/04/04 07:22:51;;;;;;;1999.90;999.90;;;13.10;81.50;;;;;;5027150;28;20060;-81
2024/04/04 07:25:16;;;;;;;1999.90;999.90;;;13.10;82.90;;;;;;5023406;28;20564;-82
2024/04/04 07:27:43;;;;;;;1999.90;999.90;;;13.20;81.90;;;;;;5024545;28;20132;-82
2024/04/04 07:30:10;;;;;;;1999.90;999.90;;;13.20;82.10;;;;;;5024518;28;20084;-82
2024/04/04 07:32:36;;;;;;;1999.90;999.90;;;13.60;81.50;;;;;;5024577;28;20086;-82
2024/04/04 07:35:01;;;;;;;1999.90;999.90;;;14.40;78.40;;;;;;5025990;28;20051;-82
2024/04/04 07:37:28;;;;;;;1999.90;999.90;;;14.70;76.40;;;;;;5023231;28;20028;-82
2024/04/04 07:39:54;;;;;;;1999.90;999.90;;;14.70;76.90;;;;;;5022994;28;20069;-82
2024/04/04 07:42:20;;;;;;;1999.90;999.90;;;15.30;76.10;;;;;;5024888;28;20030;-82
2024/04/04 07:44:46;;;;;;;1999.90;999.90;;;15.90;75.00;;;;;;5024869;28;20099;-82
2024/04/04 07:47:12;;;;;;;1999.90;999.90;;;16.30;74.60;;;;;;5024962;28;20057;-82
2024/04/04 07:49:38;;;;;;;1999.90;999.90;;;16.70;74.20;;;;;;5024689;28;20056;-82
2024/04/04 07:52:04;;;;;;;1999.90;999.90;;;17.60;70.00;;;;;;5024563;28;20260;-82
2024/04/04 07:54:30;;;;;;;1999.90;999.90;;;18.00;68.60;;;;;;5024160;28;20049;-82
2024/04/04 07:56:56;;;;;;;1999.90;999.90;;;19.50;66.50;;;;;;5024946;28;20128;-82
2024/04/04 07:59:21;;;;;;;1999.90;999.90;;;20.10;61.60;;;;;;5024252;28;20551;-82
2024/04/04 08:01:47;;;;;;;1999.90;999.90;;;20.00;61.00;;;;;;5024053;28;20040;-81
2024/04/04 08:04:13;;;;;;;1999.90;999.90;;;21.70;57.20;;;;;;5017732;28;20025;-82
2024/04/04 08:06:39;;;;;;;1999.90;999.90;;;21.20;56.80;;;;;;5023483;28;20121;-82
2024/04/04 08:09:07;;;;;;;1999.90;999.90;;;21.50;57.20;;;;;;5023702;28;20370;-82
2024/04/04 08:11:33;;;;;;;1999.90;999.90;;;20.00;57.90;;;;;;5023627;28;20116;-82
2024/04/04 08:14:01;;;;;;;1999.90;999.90;;;18.90;59.70;;;;;;5023401;28;20030;-82
2024/04/04 08:16:26;;;;;;;1999.90;999.90;;;18.50;62.30;;;;;;5024543;28;20029;-82
2024/04/04 08:18:52;;;;;;;1999.90;999.90;;;19.70;62.40;;;;;;5031405;28;20463;-82
2024/04/04 08:21:18;;;;;;;1999.90;999.90;;;21.50;56.30;;;;;;5026980;28;20041;-82
2024/04/04 08:23:44;;;;;;;1999.90;999.90;;;21.90;56.80;;;;;;5023218;28;20033;-82
2024/04/04 08:26:10;;;;;;;1999.90;999.90;;;23.00;52.40;;;;;;5022798;28;20059;-82
2024/04/04 08:28:35;;;;;;;1999.90;999.90;;;23.30;51.20;;;;;;5024012;28;20108;-83
2024/04/04 08:31:06;;;;;;;1999.90;999.90;;;23.10;51.10;;;;;;5023091;28;20037;-82
2024/04/04 08:33:31;;;;;;;1999.90;999.90;;;23.70;49.50;;;;;;5022490;28;20028;-82
2024/04/04 08:35:58;;;;;;;1999.90;999.90;;;22.60;49.80;;;;;;5022954;28;20018;-82
2024/04/04 08:38:24;;;;;;;1999.90;999.90;;;22.80;50.20;;;;;;5023563;28;20379;-82
2024/04/04 08:40:50;;;;;;;1999.90;999.90;;;24.20;49.60;;;;;;5021499;28;20704;-82
2024/04/04 08:43:18;;;;;;;1999.90;999.90;;;25.00;46.10;;;;;;5023033;28;20029;-82
2024/04/04 08:45:48;;;;;;;1999.90;999.90;;;25.10;47.40;;;;;;5027396;28;20102;-82
2024/04/04 08:48:18;;;;;;;1999.90;999.90;;;26.30;44.80;;;;;;5022578;28;20030;-82
2024/04/04 08:50:46;;;;;;;1999.90;999.90;;;25.90;42.30;;;;;;5022555;28;20029;-82
2024/04/04 08:53:28;;;;;;;1999.90;999.90;;;26.10;42.50;;;;;;5022494;28;20068;-82
2024/04/04 08:55:54;;;;;;;1999.90;999.90;;;26.80;41.30;;;;;;5022660;28;20726;-82
2024/04/04 08:58:22;;;;;;;1999.90;999.90;;;25.60;43.00;;;;;;5030056;28;20061;-82
2024/04/04 09:00:50;;;;;;;1999.90;999.90;;;24.80;43.60;;;;;;5022376;28;20891;-82
2024/04/04 09:03:17;;;;;;;1999.90;999.90;;;23.40;44.20;;;;;;5017473;28;20026;-82
2024/04/04 09:05:44;;;;;;;1999.90;999.90;;;22.70;46.20;;;;;;5021805;28;20034;-82
2024/04/04 09:08:10;;;;;;;1999.90;999.90;;;23.20;46.30;;;;;;5022641;28;20108;-82
2024/04/04 09:10:37;;;;;;;1999.90;999.90;;;23.30;45.00;;;;;;5023175;28;20037;-82
2024/04/04 09:13:07;;;;;;;1999.90;999.90;;;24.80;42.90;;;;;;5022363;28;20068;-82
2024/04/04 09:15:37;;;;;;;1999.90;999.90;;;27.40;42.60;;;;;;5022451;28;20702;-83
2024/04/04 09:18:12;;;;;;;1999.90;999.90;;;28.70;40.10;;;;;;5025838;28;20121;-83
2024/04/04 09:20:39;;;;;;;1999.90;999.90;;;28.50;38.40;;;;;;5019726;28;20109;-82
2024/04/04 09:23:07;;;;;;;1999.90;999.90;;;28.20;39.00;;;;;;5023043;28;21178;-82
2024/04/04 09:25:34;;;;;;;1999.90;999.90;;;27.80;40.60;;;;;;5022217;28;20088;-82
2024/04/04 09:28:03;;;;;;;1999.90;999.90;;;27.30;41.50;;;;;;5021654;28;20029;-82
2024/04/04 09:30:32;;;;;;;1999.90;999.90;;;28.00;39.40;;;;;;5021992;28;20495;-82
2024/04/04 09:32:58;;;;;;;1999.90;999.90;;;27.90;39.00;;;;;;5022179;28;20425;-82
2024/04/04 09:35:23;;;;;;;1999.90;999.90;;;27.40;37.60;;;;;;5020837;28;20564;-82
2024/04/04 09:37:49;;;;;;;;;;;27.20;38.90;;;;;;5022163;28;20040;-82
2024/04/04 09:40:16;;;;;;;;;;;26.30;40.00;;;;;;5022400;28;19917;-82
2024/04/04 09:42:45;;;;;;;1999.90;999.90;;;25.10;43.40;;;;;;5024991;28;20296;-83
2024/04/04 09:45:12;;;;;;;1999.90;999.90;;;24.80;43.10;;;;;;5021281;28;20971;-82
2024/04/04 09:47:45;;;;;;;1999.90;999.90;;;24.80;42.70;;;;;;5021726;28;20022;-82
2024/04/04 09:50:15;;;;;;;1999.90;999.90;;;25.30;41.10;;;;;;5020820;28;20037;-82
2024/04/04 09:52:41;;;;;;;1999.90;999.90;;;25.30;42.90;;;;;;5020265;28;20121;-82
2024/04/04 09:55:08;;;;;;;1999.90;999.90;;;25.80;43.60;;;;;;5021531;28;20030;-82
2024/04/04 09:57:38;;;;;;;1999.90;999.90;;;26.30;41.50;;;;;;5022005;28;20045;-82
2024/04/04 10:00:27;;;;;;;1999.90;999.90;;;26.10;45.20;;;;;;5021884;28;20048;-82
2024/04/04 10:02:55;;;;;;;1999.90;999.90;;;27.20;42.10;;;;;;5011584;28;20144;-82
2024/04/04 10:05:36;;;;;;;1999.90;999.90;;;27.70;39.30;;;;;;5022092;28;20480;-82
2024/04/04 10:08:12;;;;;;;1999.90;999.90;;;27.30;37.10;;;;;;5021840;28;20033;-82
2024/04/04 10:10:40;;;;;;;1999.90;999.90;;;25.80;38.40;;;;;;5020427;28;20036;-82
2024/04/04 10:13:08;;;;;;;1999.90;999.90;;;25.30;40.50;;;;;;5021973;28;20030;-82
2024/04/04 10:15:43;;;;;;;1999.90;999.90;;;25.10;42.30;;;;;;5021728;28;20022;-82
2024/04/04 10:18:11;;;;;;;1999.90;999.90;;;24.40;44.20;;;;;;5026022;28;20037;-82
2024/04/04 10:20:42;;;;;;;1999.90;999.90;;;24.30;47.40;;;;;;5022165;28;20033;-82
2024/04/04 10:23:13;;;;;;;1999.90;999.90;;;23.30;45.70;;;;;;5024628;28;20053;-83
2024/04/04 10:25:43;;;;;;;1999.90;999.90;;;22.90;47.10;;;;;;5022168;28;20555;-82
2024/04/04 10:28:09;;;;;;;1999.90;999.90;;;22.20;47.00;;;;;;5021747;28;20029;-82
2024/04/04 10:30:36;;;;;;;1999.90;999.90;;;22.20;50.80;;;;;;5021840;28;20111;-82
2024/04/04 10:33:11;;;;;;;1999.90;999.90;;;22.20;51.10;;;;;;5023473;28;20040;-82
2024/04/04 10:35:38;;;;;;;1999.90;999.90;;;22.40;51.00;;;;;;5021549;28;20401;-82
2024/04/04 10:38:10;;;;;;;;;;;22.20;53.40;;;;;;5020495;28;20065;-82
2024/04/04 10:40:36;;;;;;;1999.90;999.90;;;21.90;51.60;;;;;;5022006;28;19916;-82
2024/04/04 10:43:07;;;;;;;1999.90;999.90;;;21.70;55.30;;;;;;5020268;28;20018;-82
2024/04/04 10:45:33;;;;;;;1999.90;999.90;;;21.30;51.70;;;;;;5022819;28;20448;-82
2024/04/04 10:47:59;;;;;;;1999.90;999.90;;;21.40;54.50;;;;;;5025071;28;20025;-82
2024/04/04 10:50:26;;;;;;;1999.90;999.90;;;21.40;54.50;;;;;;5023929;28;20048;-82
2024/04/04 10:52:53;;;;;;;1999.90;999.90;;;21.20;57.40;;;;;;5025250;28;20489;-82
2024/04/04 10:55:20;;;;;;;1999.90;999.90;;;21.20;55.60;;;;;;5024649;28;20026;-82
2024/04/04 10:57:51;;;;;;;1999.90;999.90;;;21.40;57.30;;;;;;5024726;28;20021;-82
2024/04/04 11:00:19;;;;;;;1999.90;999.90;;;21.10;55.90;;;;;;5024871;28;20056;-82
2024/04/04 11:02:48;;;;;;;1999.90;999.90;;;21.00;56.30;;;;;;5025689;28;20024;-82
2024/04/04 11:05:16;;;;;;;1999.90;999.90;;;21.00;55.40;;;;;;5023872;28;20030;-82
2024/04/04 11:07:43;;;;;;;1999.90;999.90;;;20.80;55.70;;;;;;5024973;28;20026;-82
2024/04/04 11:10:13;;;;;;;1999.90;999.90;;;20.80;57.90;;;;;;5024353;28;20037;-82
2024/04/04 11:12:39;;;;;;;1999.90;999.90;;;21.00;59.30;;;;;;5024448;28;20025;-82
2024/04/04 11:15:09;;;;;;;1999.90;999.90;;;21.20;56.00;;;;;;5024855;28;20033;-82
2024/04/04 11:17:35;;;;;;;1999.90;999.90;;;21.10;55.40;;;;;;5028393;28;20838;-82
2024/04/04 11:20:05;;;;;;;1999.90;999.90;;;21.30;60.30;;;;;;5022577;28;20053;-82
2024/04/04 11:22:35;;;;;;;1999.90;999.90;;;21.30;62.30;;;;;;5027949;28;20045;-82
2024/04/04 11:25:05;;;;;;;1999.90;999.90;;;20.90;59.70;;;;;;5024035;28;20068;-82
2024/04/04 11:27:32;;;;;;;1999.90;999.90;;;20.90;57.50;;;;;;5024105;28;20030;-82
2024/04/04 11:29:58;;;;;;;;;;;20.80;59.70;;;;;;5026208;28;20049;-82
2024/04/04 11:32:23;;;;;;;;;;;20.90;58.20;;;;;;5024214;28;19909;-82
2024/04/04 11:34:49;;;;;;;1999.90;999.90;;;20.90;58.20;;;;;;5024119;28;20420;-81
2024/04/04 11:37:15;;;;;;;1999.90;999.90;;;20.80;59.90;;;;;;5024541;28;20028;-82
2024/04/04 11:39:40;;;;;;;1999.90;999.90;;;20.60;57.30;;;;;;5024197;28;20280;-82
2024/04/04 11:42:06;;;;;;;1999.90;999.90;;;20.50;58.20;;;;;;5024590;28;20027;-82
2024/04/04 11:44:32;;;;;;;1999.90;999.90;;;20.50;55.70;;;;;;5024207;28;20021;-82
2024/04/04 11:46:58;;;;;;;1999.90;999.90;;;20.30;54.00;;;;;;5026584;28;20107;-82
2024/04/04 11:49:24;;;;;;;1999.90;999.90;;;20.30;56.60;;;;;;5024122;28;20025;-82
2024/04/04 11:51:50;;;;;;;1999.90;999.90;;;20.40;60.70;;;;;;5024685;28;20033;-82
2024/04/04 11:54:16;;;;;;;;;;;20.30;61.00;;;;;;5024402;28;20739;-82
2024/04/04 11:56:43;;;;;;;;;;;20.20;58.20;;;;;;5023821;28;20036;-82
2024/04/04 11:59:08;;;;;;;1999.90;999.90;;;20.20;60.30;;;;;;5027474;28;19913;-82
2024/04/04 12:01:34;;;;;;;1999.90;999.90;;;20.00;58.70;;;;;;5024095;28;20041;-82